EGBBLTBS

Guest
Details From EGBB - Birmingham
To LTBS - Dalaman
Flight Number -
Tags Generated
Created
Modified
Stats Distance 1,594 nm / 2,952 km
Max Altitude 0 ft / 0 m
Waypoints 9
Social Downloads 6
Likes 0
Share VATSIM

Download

Looking for another format? Having issues loading an existing format? Contact us
Advertisement - Login to hide

Notes

Generated

Route

EGBB CIV12 R1291 ISTRI ZENIC SKJ12 NILVA DAL32 LTBS

ID Type Via Altitude Latitude Longitude Leg Dist Tot Dist Heading (true) Name
O EGBB APT - 0 ft / 0 m 52.45113˚ -1.75493˚ - 0 nm - -
CIV12 FIX - 0 ft / 0 m 50.62368˚ 4.12540˚ 245 nm 245 nm 114° / 119° -
R1291 FIX - 0 ft / 0 m 48.68648˚ 9.20404˚ 229 nm 474 nm 119° / 122° -
ISTRI FIX - 0 ft / 0 m 46.49805˚ 13.95939˚ 233 nm 707 nm 123° / 126° -
ZENIC FIX - 0 ft / 0 m 44.33531˚ 18.02820˚ 215 nm 922 nm 126° / 129° -
SKJ12 FIX - 0 ft / 0 m 42.12428˚ 21.71812˚ 209 nm 1131 nm 128° / 131° -
NILVA FIX - 0 ft / 0 m 39.32389˚ 25.68278˚ 246 nm 1378 nm 132° / 134° -
DAL32 FIX - 0 ft / 0 m 36.82597˚ 28.62903˚ 204 nm 1583 nm 136° / 138° -
O LTBS APT - 0 ft / 0 m 36.70016˚ 28.78809˚ 10 nm 1593 nm 135° / 135° -

Altitude Profile

Advertisement - Login to hide

Weather


0- 5 10 15 20 25 30 35+ Temperature / ° C

Clouds and Precipitation
Forecast for 2018-05-26 06:00 UTC. Updated an hour ago

Ground ~20,000 ft ~40,000 ft Winds

EGBB

Details ICAO EGBB (BHX)
Name Birmingham
Region United Kingdom
Timezone Europe/London (UTC+1.0)
Stats Elevation 327 ft / 100 m (AMSL)
Location 52.455966° -1.750378°
Runways 1
Magnetic Variation 1.072° W

METAR

EGBB 260620Z 03009KT 1500 BR OVC003 12/12 Q1021

Decode

TAF

TAF EGBB 260458Z 2606/2706 04009KT 0700 FG OVC001 BECMG 2606/2609 2500 BR OVC004 BECMG 2609/2611 9999 NSW FEW025 PROB30 TEMPO 2611/2614 8000 SHRA TEMPO 2623/2706 6000 SHRA PROB40 TEMPO 2623/2706 05015G25KT 2000 +SHRA TSGR

Decode

Departure Runways

ID Width Length Bearing (true) Bearing (mag) Surface Threshold Offset Overrun Length
15 151 ft / 46 m 8,477 ft / 2,584 m 145.87° 146.94° Asphalt 925 ft / 282 m 0 ft / 0 m
33 151 ft / 46 m 8,477 ft / 2,584 m 325.89° 326.96° Asphalt 958 ft / 292 m 0 ft / 0 m

LTBS

Details ICAO LTBS (DLM)
Name DALAMAN
Region Turkey
Timezone Europe/Istanbul (UTC+3.0)
Stats Elevation 20 ft / 6 m (AMSL)
Location 36.713189° 28.792513°
Runways 1
Magnetic Variation 4.921° E

METAR

LTBS 260620Z 01004KT 320V050 9999 FEW025 BKN100 23/18 Q1008 R012///95 BECMG TL0800 20012KT

Decode

TAF

TAF AMD LTBS 260200Z 2602/2624 VRB02KT 9999 SCT030 BKN080 TEMPO 2604/2608 4000 TSRA FEW015CB BKN030 BECMG 2606/2608 20012KT PROB40 TEMPO 2608/2612 4000 TSRA FEW015CB BKN030 TEMPO 2612/2616 4000 TSRA FEW015CB BKN030 BECMG 2616/2618 VRB02KT

Decode

Destination Runways

ID Width Length Bearing (true) Bearing (mag) Surface Threshold Offset Overrun Length
01 148 ft / 45 m 9,851 ft / 3,003 m 15.24° 10.32° Concrete 0 ft / 0 m 197 ft / 60 m
19 148 ft / 45 m 9,851 ft / 3,003 m 195.25° 190.33° Concrete 0 ft / 0 m 197 ft / 60 m

Popular Alternatives